Weather at Sorrell Airport

Public forecast

Using degrees Fahrenheit for public forecast. Weather courtesy of forecast.io.

Closest aviation weather report (METAR) to Sorrell Airport

Closest report is Olympia Regional Airport, 7.3 nm (13.5 km) N.

2024/07/20 06:54 (retrieved 12 minutes ago)

KOLM 200654Z 00000KT 10SM CLR 17/13 A3015 RMK AO2 SLP209 T01720133

Closest aviation forecast (TAF) to Sorrell Airport

Closest forecast is Olympia Regional Airport, 7.3 nm (13.5 km) N.

2024/07/20 06:24 (retrieved 42 minutes ago)

TAF KOLM 200522Z 2006/2106 00000KT P6SM SKC FM201400 VRB02KT P6SM FEW006 FM201800 02006KT P6SM SKC